Terminal Aerodrome Forecast
Issued by NWS

Home | Current Version | Previous Version | Graphics & Text | Print | Product List | Glossary Off
Versions: 1 2 3 4 5 6 7 8 9 10 11 12 13 14 15

758
FTUS42 KMHX 040559
TAFOAJ
TAF
KOAJ 040559Z 0406/0506 00000KT P6SM SCT090 OVC200
     FM042100 VRB03KT P6SM VCSH BKN050
     FM050000 04004KT 3SM -RA BR OVC010
     FM050300 06005KT 2SM -RA BR OVC007
      AMD LTD TO CLD VIS AND WIND=

USA.gov is the U.S. government's official web portal to all federal, state and local government web resources and services.